Aérodrome :
LOGIN :

S'inscrire | Disclaimer

   EN    FR    IT 

 










Légende :    VFR   VFR Marginal   IFR   IFR Intensif   IFR Très Intensif
Visi : 
Plafond : 
>= 8 km
>= 3000ft
5 à 8 km
1000 à 3000 ft
1500m à 5 km
500 à 1000 ft
800 à 1500m
200 à 500 ft
< 800m
< 200 ft
Symboles :   Orages  Brouillard  Fortes neiges  Fortes précipitations  Vent > 20 kt
SIGMETs :   Divers  Orages  Givrage  Turbulence  Onde Orograph.  Cendres Volcan.







- Altitude de l'aérodrome : 12 ft
- Code IATA : BCN


LEBL - Barcelone

DERNIER METAR :
  • 220030Z 11009KT 9999 FEW018 FEW025CB BKN028 20/17 Q1022 TEMPO TSRA

METARs EXPIRÉS :
  • 220000Z 12013KT 090V150 9999 FEW018 FEW025TCU BKN035 20/17 Q1023 NOSIG
  • 212330Z 11005KT 010V160 9999 FEW018 FEW025TCU BKN050 20/17 Q1022 NOSIG
  • 212300Z 29004KT 9999 FEW025TCU BKN053 20/16 Q1022 NOSIG
  • 212230Z 00000KT 9999 FEW030 BKN055 20/16 Q1022 NOSIG
  • 212200Z 34004KT 9999 FEW030 BKN055 20/16 Q1022 NOSIG

TAF AMD TAF LEBL
Valide du 22 à 00h jusqu'au 23 à 00h UTC


220028Z 2200/2224 VRB03KT 9999 SCT020 TX23/2212Z TN15/2206Z
PROB40
TEMPO 2200/2208 4000 SHRA BKN012 SCT020CB
TEMPO 2200/2204 10008KT
BECMG 2204/2206 33008KT
PROB30
TEMPO 2206/2209 34008G20KT
BECMG 2212/2214 22010KT
Pas de NOTAMs connus pour ce terrain.



MET'MAP, la Météo Aéronautique d'un coup d'oeil ! - Copyright ORBIFLY Décembre 2007 - Disclaimer

ORBIFLY MET'MAP TEAM :

Programmation & Développement : Alexandra Zaïnal
Conception & Développement : Baudouin d'Aumeries
Co-Programmation & Développement : Marc-Olivier Méhu
Soutien technique & logistique : Manuel Goepfert

Contact : metmap@orbifly.com




SOURCES & CREDITS :

   NOAA